PWSweather.com
Personal Weather Stations
Station Observations
KEVSFASTZ
Meadow Lake, Boynton Beach, FL 33436

Meadow LakeBoynton Beach, FL 33436

Lat: 26.561295, Lon: -80.095896

Elevation: 36

Station Type: WS-2902

Latest ConditionsUpdated 5:55:00 AM EST Wednesday, Nov 21, 2018
Currently Today's Max Today's Min Today's Average
Temperature 69.8°F21.0°C 73.1°F22.8°C 69.8°F21.0°C 71.8°F22.1°C
Dew Point 65.8°F18.8°C 69.0°F20.6°C 65.8°F18.8°C 67.6°F19.8°C
Winds Calm Calm 3.1 mph -5.0 kmh - - 1.1 mph 1.8 kmh
Wind Gusts -- 5.8 mph9.3 kmh - -
Humidity 87% 87% 85% 86%
Pressure 30.08 in1018.6 mb 30.09 in1019.0 mb 30.05 in1017.6 mb -
Hour Temp Dew Point Humidity Winds Wind Gusts Pressure Precip Precip Rate Daily Precip Total
05:55 AM 69.8°F21.0°C 65.8°F18.8°C 87% Calm Calm -- 30.08 in1018.6 mb 0.00 in0.0 mm 0.00 in0.0 mm 0.00 in0.0 mm
05:50 AM 69.8°F21.0°C 65.8°F18.8°C 87% 0.1 mph NW0.2 kmh NW 1.1 mph1.8 kmh 30.08 in1018.6 mb 0.00 in0.0 mm 0.00 in0.0 mm 0.00 in0.0 mm
05:45 AM 69.8°F21.0°C 65.8°F18.8°C 87% 0.1 mph NNW0.2 kmh NNW 1.1 mph1.8 kmh 30.07 in1018.3 mb 0.00 in0.0 mm 0.00 in0.0 mm 0.00 in0.0 mm
05:40 AM 70.0°F21.1°C 66.0°F18.9°C 87% 0.5 mph NNW0.8 kmh NNW 1.1 mph1.8 kmh 30.07 in1018.3 mb 0.00 in0.0 mm 0.00 in0.0 mm 0.00 in0.0 mm
05:35 AM 70.0°F21.1°C 66.0°F18.9°C 87% 0.9 mph NW1.4 kmh NW 2.2 mph3.5 kmh 30.07 in1018.3 mb 0.00 in0.0 mm 0.00 in0.0 mm 0.00 in0.0 mm
05:30 AM 70.0°F21.1°C 66.0°F18.9°C 87% 0.6 mph NW1.0 kmh NW 2.2 mph3.5 kmh 30.07 in1018.3 mb 0.00 in0.0 mm 0.00 in0.0 mm 0.00 in0.0 mm
05:25 AM 70.0°F21.1°C 66.0°F18.9°C 87% 1.1 mph W1.8 kmh W 3.4 mph5.5 kmh 30.07 in1018.3 mb 0.00 in0.0 mm 0.00 in0.0 mm 0.00 in0.0 mm
05:20 AM 70.2°F21.2°C 66.2°F19.0°C 87% 0.6 mph W1.0 kmh W 2.2 mph3.5 kmh 30.07 in1018.3 mb 0.00 in0.0 mm 0.00 in0.0 mm 0.00 in0.0 mm
05:15 AM 70.2°F21.2°C 66.2°F19.0°C 87% 1.4 mph W2.3 kmh W 2.2 mph3.5 kmh 30.07 in1018.3 mb 0.00 in0.0 mm 0.00 in0.0 mm 0.00 in0.0 mm
05:10 AM 70.2°F21.2°C 66.3°F19.1°C 87% 1.2 mph W1.9 kmh W 2.2 mph3.5 kmh 30.07 in1018.3 mb 0.00 in0.0 mm 0.00 in0.0 mm 0.00 in0.0 mm
05:05 AM 70.3°F21.3°C 66.4°F19.1°C 87% 1.0 mph WNW1.6 kmh WNW 3.4 mph5.5 kmh 30.07 in1018.3 mb 0.00 in0.0 mm 0.00 in0.0 mm 0.00 in0.0 mm
05:00 AM 70.3°F21.3°C 66.4°F19.1°C 87% 0.8 mph W1.3 kmh W 2.2 mph3.5 kmh 30.06 in1017.9 mb 0.00 in0.0 mm 0.00 in0.0 mm 0.00 in0.0 mm
04:55 AM 70.3°F21.3°C 66.2°F19.0°C 87% 0.7 mph W1.1 kmh W 2.2 mph3.5 kmh 30.06 in1017.9 mb 0.00 in0.0 mm 0.00 in0.0 mm 0.00 in0.0 mm
04:50 AM 70.4°F21.3°C 66.5°F19.2°C 87% 0.8 mph W1.3 kmh W 2.2 mph3.5 kmh 30.06 in1017.9 mb 0.00 in0.0 mm 0.00 in0.0 mm 0.00 in0.0 mm
04:45 AM 70.5°F21.4°C 66.5°F19.2°C 87% 1.4 mph W2.3 kmh W 3.4 mph5.5 kmh 30.06 in1017.9 mb 0.00 in0.0 mm 0.00 in0.0 mm 0.00 in0.0 mm
04:40 AM 70.5°F21.4°C 66.6°F19.2°C 87% 1.1 mph W1.8 kmh W 2.2 mph3.5 kmh 30.06 in1017.9 mb 0.00 in0.0 mm 0.00 in0.0 mm 0.00 in0.0 mm
04:35 AM 70.6°F21.4°C 66.5°F19.2°C 86% 1.5 mph W2.4 kmh W 3.4 mph5.5 kmh 30.06 in1017.9 mb 0.00 in0.0 mm 0.00 in0.0 mm 0.00 in0.0 mm
04:30 AM 70.7°F21.5°C 66.5°F19.2°C 86% 1.1 mph W1.8 kmh W 4.5 mph7.2 kmh 30.06 in1017.9 mb 0.00 in0.0 mm 0.00 in0.0 mm 0.00 in0.0 mm
04:25 AM 70.7°F21.5°C 66.5°F19.2°C 86% 1.5 mph W2.4 kmh W 4.5 mph7.2 kmh 30.06 in1017.9 mb 0.00 in0.0 mm 0.00 in0.0 mm 0.00 in0.0 mm
04:20 AM 70.7°F21.5°C 66.4°F19.1°C 86% 1.4 mph W2.3 kmh W 3.4 mph5.5 kmh 30.05 in1017.6 mb 0.00 in0.0 mm 0.00 in0.0 mm 0.00 in0.0 mm
04:15 AM 70.9°F21.6°C 66.6°F19.2°C 86% 0.7 mph W1.1 kmh W 2.2 mph3.5 kmh 30.05 in1017.6 mb 0.00 in0.0 mm 0.00 in0.0 mm 0.00 in0.0 mm
04:10 AM 70.9°F21.6°C 66.6°F19.2°C 86% 0.6 mph W1.0 kmh W 2.2 mph3.5 kmh 30.06 in1017.9 mb 0.00 in0.0 mm 0.00 in0.0 mm 0.00 in0.0 mm
04:05 AM 70.9°F21.6°C 66.6°F19.2°C 86% 0.7 mph WNW1.1 kmh WNW 2.2 mph3.5 kmh 30.06 in1017.9 mb 0.00 in0.0 mm 0.00 in0.0 mm 0.00 in0.0 mm
04:00 AM 71.1°F21.7°C 66.7°F19.3°C 86% 1.1 mph W1.8 kmh W 2.2 mph3.5 kmh 30.05 in1017.6 mb 0.00 in0.0 mm 0.00 in0.0 mm 0.00 in0.0 mm
03:55 AM 71.1°F21.7°C 66.8°F19.3°C 86% 0.8 mph W1.3 kmh W 2.2 mph3.5 kmh 30.06 in1017.9 mb 0.00 in0.0 mm 0.00 in0.0 mm 0.00 in0.0 mm
03:50 AM 71.2°F21.8°C 66.9°F19.4°C 86% 0.2 mph NW0.3 kmh NW 1.1 mph1.8 kmh 30.06 in1017.9 mb 0.00 in0.0 mm 0.00 in0.0 mm 0.00 in0.0 mm
03:45 AM 71.4°F21.9°C 67.1°F19.5°C 86% 0.6 mph W1.0 kmh W 2.2 mph3.5 kmh 30.06 in1017.9 mb 0.00 in0.0 mm 0.00 in0.0 mm 0.00 in0.0 mm
03:40 AM 71.4°F21.9°C 67.1°F19.5°C 86% 1.1 mph WNW1.8 kmh WNW 4.5 mph7.2 kmh 30.06 in1017.9 mb 0.00 in0.0 mm 0.00 in0.0 mm 0.00 in0.0 mm
03:35 AM 71.6°F22.0°C 67.3°F19.6°C 86% 0.7 mph NW1.1 kmh NW 2.2 mph3.5 kmh 30.06 in1017.9 mb 0.00 in0.0 mm 0.00 in0.0 mm 0.00 in0.0 mm
03:30 AM 71.6°F22.0°C 67.3°F19.6°C 86% 0.2 mph NW0.3 kmh NW 1.1 mph1.8 kmh 30.06 in1017.9 mb 0.00 in0.0 mm 0.00 in0.0 mm 0.00 in0.0 mm
03:25 AM 71.8°F22.1°C 67.5°F19.7°C 86% 0.3 mph NNW0.5 kmh NNW 1.1 mph1.8 kmh 30.06 in1017.9 mb 0.00 in0.0 mm 0.00 in0.0 mm 0.00 in0.0 mm
03:20 AM 71.9°F22.2°C 67.4°F19.7°C 86% 0.5 mph NNW0.8 kmh NNW 2.2 mph3.5 kmh 30.06 in1017.9 mb 0.00 in0.0 mm 0.00 in0.0 mm 0.00 in0.0 mm
03:15 AM 72.0°F22.2°C 67.4°F19.7°C 85% 1.0 mph WNW1.6 kmh WNW 4.5 mph7.2 kmh 30.06 in1017.9 mb 0.00 in0.0 mm 0.00 in0.0 mm 0.00 in0.0 mm
03:10 AM 72.1°F22.3°C 67.5°F19.7°C 85% 1.1 mph NW1.8 kmh NW 3.4 mph5.5 kmh 30.06 in1017.9 mb 0.00 in0.0 mm 0.00 in0.0 mm 0.00 in0.0 mm
03:05 AM 72.1°F22.3°C 67.5°F19.7°C 85% 1.2 mph W1.9 kmh W 3.4 mph5.5 kmh 30.06 in1017.9 mb 0.00 in0.0 mm 0.00 in0.0 mm 0.00 in0.0 mm
03:00 AM 72.3°F22.4°C 67.7°F19.8°C 85% 1.4 mph W2.3 kmh W 3.4 mph5.5 kmh 30.06 in1017.9 mb 0.00 in0.0 mm 0.00 in0.0 mm 0.00 in0.0 mm
02:55 AM 72.3°F22.4°C 67.6°F19.8°C 85% 1.4 mph W2.3 kmh W 3.4 mph5.5 kmh 30.07 in1018.3 mb 0.00 in0.0 mm 0.00 in0.0 mm 0.00 in0.0 mm
02:50 AM 72.5°F22.5°C 67.8°F19.9°C 85% 0.7 mph WNW1.1 kmh WNW 2.2 mph3.5 kmh 30.06 in1017.9 mb 0.00 in0.0 mm 0.00 in0.0 mm 0.00 in0.0 mm
02:45 AM 72.6°F22.6°C 68.2°F20.1°C 86% 1.0 mph W1.6 kmh W 2.2 mph3.5 kmh 30.06 in1017.9 mb 0.00 in0.0 mm 0.00 in0.0 mm 0.00 in0.0 mm
02:40 AM 72.7°F22.6°C 68.4°F20.2°C 86% 1.2 mph W1.9 kmh W 3.4 mph5.5 kmh 30.06 in1017.9 mb 0.00 in0.0 mm 0.00 in0.0 mm 0.00 in0.0 mm
02:35 AM 72.7°F22.6°C 68.4°F20.2°C 86% 1.9 mph W3.1 kmh W 3.4 mph5.5 kmh 30.07 in1018.3 mb 0.00 in0.0 mm 0.00 in0.0 mm 0.00 in0.0 mm
02:30 AM 72.6°F22.6°C 68.3°F20.2°C 86% 1.2 mph WSW1.9 kmh WSW 2.2 mph3.5 kmh 30.07 in1018.3 mb 0.00 in0.0 mm 0.00 in0.0 mm 0.00 in0.0 mm
02:25 AM 72.5°F22.5°C 68.2°F20.1°C 86% 1.2 mph W1.9 kmh W 2.2 mph3.5 kmh 30.07 in1018.3 mb 0.00 in0.0 mm 0.00 in0.0 mm 0.00 in0.0 mm
02:20 AM 72.5°F22.5°C 68.2°F20.1°C 86% 0.4 mph W0.6 kmh W 1.1 mph1.8 kmh 30.07 in1018.3 mb 0.00 in0.0 mm 0.00 in0.0 mm 0.00 in0.0 mm
02:15 AM 72.5°F22.5°C 68.2°F20.1°C 86% 0.8 mph WSW1.3 kmh WSW 2.2 mph3.5 kmh 30.07 in1018.3 mb 0.00 in0.0 mm 0.00 in0.0 mm 0.00 in0.0 mm
02:10 AM 72.5°F22.5°C 68.2°F20.1°C 86% 0.3 mph W0.5 kmh W 1.1 mph1.8 kmh 30.07 in1018.3 mb 0.00 in0.0 mm 0.00 in0.0 mm 0.00 in0.0 mm
02:05 AM 72.5°F22.5°C 68.2°F20.1°C 86% 0.6 mph W1.0 kmh W 2.2 mph3.5 kmh 30.07 in1018.3 mb 0.00 in0.0 mm 0.00 in0.0 mm 0.00 in0.0 mm
02:00 AM 72.6°F22.6°C 68.3°F20.2°C 86% 1.7 mph WNW2.7 kmh WNW 3.4 mph5.5 kmh 30.07 in1018.3 mb 0.00 in0.0 mm 0.00 in0.0 mm 0.00 in0.0 mm
01:55 AM 72.7°F22.6°C 68.4°F20.2°C 86% 1.2 mph WSW1.9 kmh WSW 3.4 mph5.5 kmh 30.07 in1018.3 mb 0.00 in0.0 mm 0.00 in0.0 mm 0.00 in0.0 mm
01:50 AM 72.7°F22.6°C 68.4°F20.2°C 86% 1.8 mph WNW2.9 kmh WNW 3.4 mph5.5 kmh 30.07 in1018.3 mb 0.00 in0.0 mm 0.00 in0.0 mm 0.00 in0.0 mm
01:45 AM 72.7°F22.6°C 68.4°F20.2°C 86% 2.1 mph NW3.4 kmh NW 4.5 mph7.2 kmh 30.07 in1018.3 mb 0.00 in0.0 mm 0.00 in0.0 mm 0.00 in0.0 mm
01:40 AM 72.9°F22.7°C 68.4°F20.2°C 86% 1.2 mph NW1.9 kmh NW 3.4 mph5.5 kmh 30.07 in1018.3 mb 0.00 in0.0 mm 0.00 in0.0 mm 0.00 in0.0 mm
01:35 AM 72.9°F22.7°C 68.4°F20.2°C 86% 1.4 mph W2.3 kmh W 3.4 mph5.5 kmh 30.08 in1018.6 mb 0.00 in0.0 mm 0.00 in0.0 mm 0.00 in0.0 mm
01:30 AM 72.9°F22.7°C 68.4°F20.2°C 86% 3.1 mph W5.0 kmh W 5.8 mph9.3 kmh 30.08 in1018.6 mb 0.00 in0.0 mm 0.00 in0.0 mm 0.00 in0.0 mm
01:25 AM 73.0°F22.8°C 68.6°F20.3°C 86% 1.4 mph W2.3 kmh W 2.2 mph3.5 kmh 30.08 in1018.6 mb 0.00 in0.0 mm 0.00 in0.0 mm 0.00 in0.0 mm
01:20 AM 73.0°F22.8°C 68.9°F20.5°C 87% 1.3 mph W2.1 kmh W 3.4 mph5.5 kmh 30.08 in1018.6 mb 0.00 in0.0 mm 0.00 in0.0 mm 0.00 in0.0 mm
01:15 AM 73.0°F22.8°C 68.9°F20.5°C 87% 1.4 mph W2.3 kmh W 2.2 mph3.5 kmh 30.08 in1018.6 mb 0.00 in0.0 mm 0.00 in0.0 mm 0.00 in0.0 mm
01:10 AM 73.0°F22.8°C 68.9°F20.5°C 87% 1.8 mph W2.9 kmh W 3.4 mph5.5 kmh 30.08 in1018.6 mb 0.00 in0.0 mm 0.00 in0.0 mm 0.00 in0.0 mm
01:05 AM 72.9°F22.7°C 68.7°F20.4°C 87% 2.2 mph WSW3.5 kmh WSW 4.5 mph7.2 kmh 30.08 in1018.6 mb 0.00 in0.0 mm 0.00 in0.0 mm 0.00 in0.0 mm
01:00 AM 72.9°F22.7°C 68.7°F20.4°C 87% 0.7 mph W1.1 kmh W 2.2 mph3.5 kmh 30.08 in1018.6 mb 0.00 in0.0 mm 0.00 in0.0 mm 0.00 in0.0 mm
12:55 AM 72.9°F22.7°C 68.7°F20.4°C 87% 1.4 mph W2.3 kmh W 3.4 mph5.5 kmh 30.08 in1018.6 mb 0.00 in0.0 mm 0.00 in0.0 mm 0.00 in0.0 mm
12:50 AM 72.7°F22.6°C 68.5°F20.3°C 87% 1.8 mph WSW2.9 kmh WSW 3.4 mph5.5 kmh 30.07 in1018.3 mb 0.00 in0.0 mm 0.00 in0.0 mm 0.00 in0.0 mm
12:45 AM 72.7°F22.6°C 68.5°F20.3°C 87% 1.4 mph WSW2.3 kmh WSW 3.4 mph5.5 kmh 30.08 in1018.6 mb 0.00 in0.0 mm 0.00 in0.0 mm 0.00 in0.0 mm
12:40 AM 72.7°F22.6°C 68.5°F20.3°C 87% 1.6 mph WNW2.6 kmh WNW 3.4 mph5.5 kmh 30.08 in1018.6 mb 0.00 in0.0 mm 0.00 in0.0 mm 0.00 in0.0 mm
12:35 AM 72.7°F22.6°C 68.5°F20.3°C 87% 2.0 mph WSW3.2 kmh WSW 3.4 mph5.5 kmh 30.08 in1018.6 mb 0.00 in0.0 mm 0.00 in0.0 mm 0.00 in0.0 mm
12:30 AM 72.9°F22.7°C 68.7°F20.4°C 87% 1.4 mph W2.3 kmh W 2.2 mph3.5 kmh 30.08 in1018.6 mb 0.00 in0.0 mm 0.00 in0.0 mm 0.00 in0.0 mm
12:25 AM 72.9°F22.7°C 68.7°F20.4°C 87% 0.8 mph W1.3 kmh W 2.2 mph3.5 kmh 30.08 in1018.6 mb 0.00 in0.0 mm 0.00 in0.0 mm 0.00 in0.0 mm
12:20 AM 73.0°F22.8°C 68.9°F20.5°C 87% 1.4 mph W2.3 kmh W 3.4 mph5.5 kmh 30.08 in1018.6 mb 0.00 in0.0 mm 0.00 in0.0 mm 0.00 in0.0 mm
12:15 AM 73.0°F22.8°C 68.9°F20.5°C 87% 0.7 mph W1.1 kmh W 1.1 mph1.8 kmh 30.08 in1018.6 mb 0.00 in0.0 mm 0.00 in0.0 mm 0.00 in0.0 mm
12:10 AM 73.0°F22.8°C 68.9°F20.5°C 87% 1.3 mph W2.1 kmh W 3.4 mph5.5 kmh 30.08 in1018.6 mb 0.00 in0.0 mm 0.00 in0.0 mm 0.00 in0.0 mm
12:05 AM 73.0°F22.8°C 68.9°F20.5°C 87% 1.5 mph W2.4 kmh W 5.8 mph9.3 kmh 30.08 in1018.6 mb 0.00 in0.0 mm 0.00 in0.0 mm 0.00 in0.0 mm
12:00 AM 73.1°F22.8°C 69.0°F20.6°C 87% 1.9 mph W3.1 kmh W 5.8 mph9.3 kmh 30.09 in1019.0 mb 0.00 in0.0 mm 0.00 in0.0 mm 0.00 in0.0 mm